RYR7B LPPR-LFOB
Flight info
| Callsign | RYR7B |
|---|---|
| Flight time | 1h 6m |
| Altitude | 24000 |
| Route | TURON P600 ASDEB/N0467F360 DCT LOTEE DCT NOVAN DCT AZFIC UN741 MOKOR UN873 RONAX/N0386F180 J55 LGL Z295 PEXIR |
| Aircraft | B738/M-SDE2E3FGHIRWXY/LB1 |
Departure
| Time | 2026-05-04 19:24 |
|---|---|
| Airport | Francisco de Sá Carneiro Airport (LPPR) |
Arrival
| Time | 2026-05-04 20:30 |
|---|---|
| Airport | Beauvais-Tillé airport (LFOB) |
| Time | Latitude | Longitude | Altitude | Speed | Heading |
|---|---|---|---|---|---|
| 2026-05-04 19:01 | 41.23504 | -8.67282 | 257 ft | 0 kts | 115° |
| 2026-05-04 19:13 | 41.23511 | -8.67304 | 258 ft | 4 kts | 106° |
| 2026-05-04 19:13 | 41.23515 | -8.67338 | 259 ft | 4 kts | 81° |
| 2026-05-04 19:13 | 41.23506 | -8.67370 | 261 ft | 4 kts | 46° |
| 2026-05-04 19:13 | 41.23485 | -8.67386 | 261 ft | 4 kts | 356° |
| 2026-05-04 19:14 | 41.23481 | -8.67386 | 261 ft | 3 kts | 350° |
| 2026-05-04 19:16 | 41.23485 | -8.67387 | 261 ft | 4 kts | 350° |
| 2026-05-04 19:16 | 41.23552 | -8.67404 | 261 ft | 14 kts | 349° |
| 2026-05-04 19:16 | 41.23623 | -8.67432 | 260 ft | 0 kts | 334° |
| 2026-05-04 19:17 | 41.23632 | -8.67476 | 260 ft | 10 kts | 266° |
| 2026-05-04 19:17 | 41.23618 | -8.67564 | 262 ft | 10 kts | 257° |
| 2026-05-04 19:17 | 41.23607 | -8.67649 | 263 ft | 8 kts | 259° |
| 2026-05-04 19:17 | 41.23604 | -8.67667 | 263 ft | 0 kts | 259° |
| 2026-05-04 19:21 | 41.23594 | -8.67734 | 264 ft | 13 kts | 259° |
| 2026-05-04 19:21 | 41.23637 | -8.67821 | 262 ft | 9 kts | 346° |
| 2026-05-04 19:22 | 41.23642 | -8.67822 | 262 ft | 1 kts | 347° |
| 2026-05-04 19:22 | 41.23645 | -8.67823 | 262 ft | 1 kts | 347° |
| 2026-05-04 19:22 | 41.23652 | -8.67825 | 262 ft | 3 kts | 347° |
| 2026-05-04 19:22 | 41.23653 | -8.67826 | 261 ft | 0 kts | 347° |
| 2026-05-04 19:23 | 41.23709 | -8.67840 | 259 ft | 35 kts | 349° |
| 2026-05-04 19:23 | 41.24186 | -8.67966 | 246 ft | 103 kts | 348° |
| 2026-05-04 19:23 | 41.25078 | -8.68203 | 241 ft | 156 kts | 348° |
| 2026-05-04 19:23 | 41.26191 | -8.68430 | 737 ft | 163 kts | 348° |
| 2026-05-04 19:24 | 41.27302 | -8.68719 | 1494 ft | 162 kts | 346° |
| 2026-05-04 19:24 | 41.28359 | -8.68989 | 2427 ft | 150 kts | 345° |
| 2026-05-04 19:24 | 41.29406 | -8.69274 | 3003 ft | 161 kts | 345° |
| 2026-05-04 19:24 | 41.30562 | -8.69600 | 3454 ft | 177 kts | 345° |
| 2026-05-04 19:25 | 41.31850 | -8.69950 | 3722 ft | 200 kts | 345° |
| 2026-05-04 19:25 | 41.33263 | -8.70330 | 3906 ft | 219 kts | 345° |
| 2026-05-04 19:25 | 41.34790 | -8.70736 | 4299 ft | 228 kts | 346° |
| 2026-05-04 19:25 | 41.36366 | -8.71153 | 4828 ft | 232 kts | 346° |
| 2026-05-04 19:26 | 41.37989 | -8.71585 | 5143 ft | 247 kts | 346° |
| 2026-05-04 19:26 | 41.39686 | -8.72037 | 5686 ft | 253 kts | 346° |
| 2026-05-04 19:26 | 41.41431 | -8.72501 | 6446 ft | 257 kts | 346° |
| 2026-05-04 19:26 | 41.43232 | -8.72641 | 7138 ft | 266 kts | 6° |
| 2026-05-04 19:27 | 41.45064 | -8.72167 | 7869 ft | 271 kts | 8° |
| 2026-05-04 19:27 | 41.46924 | -8.71667 | 8601 ft | 274 kts | 8° |
| 2026-05-04 19:27 | 41.48813 | -8.71168 | 9304 ft | 279 kts | 7° |
| 2026-05-04 19:27 | 41.50727 | -8.70670 | 10040 ft | 282 kts | 7° |
| 2026-05-04 19:28 | 41.52687 | -8.70166 | 10493 ft | 295 kts | 7° |
| 2026-05-04 19:28 | 41.54783 | -8.69636 | 10664 ft | 317 kts | 7° |
| 2026-05-04 19:28 | 41.56997 | -8.69077 | 10835 ft | 338 kts | 7° |
| 2026-05-04 19:28 | 41.59409 | -8.68467 | 11048 ft | 356 kts | 7° |
| 2026-05-04 19:29 | 41.61847 | -8.67846 | 11532 ft | 365 kts | 7° |
| 2026-05-04 19:29 | 41.64383 | -8.67198 | 12190 ft | 368 kts | 7° |
| 2026-05-04 19:29 | 41.66911 | -8.66552 | 12904 ft | 371 kts | 7° |
| 2026-05-04 19:29 | 41.69425 | -8.65909 | 13604 ft | 374 kts | 7° |
| 2026-05-04 19:30 | 41.72465 | -8.65132 | 14378 ft | 378 kts | 7° |
| 2026-05-04 19:30 | 41.82851 | -8.62473 | 16959 ft | 391 kts | 7° |
| 2026-05-04 19:30 | 41.88674 | -8.60979 | 18356 ft | 398 kts | 7° |
| 2026-05-04 19:30 | 41.92392 | -8.60021 | 19091 ft | 402 kts | 7° |
| 2026-05-04 19:31 | 41.97942 | -8.58590 | 20167 ft | 409 kts | 7° |
| 2026-05-04 19:31 | 42.03386 | -8.57185 | 21139 ft | 414 kts | 6° |
| 2026-05-04 19:31 | 42.07340 | -8.56174 | 21831 ft | 418 kts | 5° |
| 2026-05-04 19:31 | 42.10424 | -8.55582 | 22369 ft | 420 kts | 3° |
| 2026-05-04 19:32 | 42.16263 | -8.54729 | 23313 ft | 425 kts | 2° |
| 2026-05-04 19:32 | 42.22191 | -8.53863 | 24127 ft | 431 kts | 2° |
| 2026-05-04 19:32 | 42.28197 | -8.52929 | 24839 ft | 437 kts | 2° |
| 2026-05-04 19:32 | 42.34268 | -8.51964 | 25599 ft | 441 kts | 3° |
| 2026-05-04 19:33 | 42.40411 | -8.50985 | 26255 ft | 448 kts | 3° |
| 2026-05-04 19:33 | 42.46330 | -8.50043 | 26865 ft | 453 kts | 3° |
| 2026-05-04 19:33 | 42.49440 | -8.49233 | 27132 ft | 461 kts | 13° |
| 2026-05-04 19:33 | 42.52438 | -8.47581 | 27458 ft | 469 kts | 24° |
| 2026-05-04 19:34 | 42.55177 | -8.45229 | 27757 ft | 478 kts | 35° |
| 2026-05-04 19:34 | 42.58525 | -8.41330 | 28134 ft | 483 kts | 38° |
| 2026-05-04 19:34 | 42.63541 | -8.35232 | 28798 ft | 485 kts | 38° |
| 2026-05-04 19:34 | 42.68598 | -8.29113 | 29395 ft | 489 kts | 38° |
| 2026-05-04 19:35 | 42.73722 | -8.22984 | 30228 ft | 487 kts | 38° |
| 2026-05-04 19:35 | 42.78792 | -8.16938 | 31031 ft | 484 kts | 38° |
| 2026-05-04 19:35 | 42.83854 | -8.10898 | 31561 ft | 485 kts | 38° |
| 2026-05-04 19:35 | 42.88920 | -8.04834 | 32278 ft | 483 kts | 38° |
| 2026-05-04 19:36 | 42.93973 | -7.98770 | 32851 ft | 483 kts | 38° |
| 2026-05-04 19:36 | 42.99013 | -7.92706 | 33587 ft | 480 kts | 38° |
| 2026-05-04 19:36 | 43.03989 | -7.86705 | 34122 ft | 480 kts | 39° |
| 2026-05-04 19:36 | 43.09006 | -7.80644 | 34565 ft | 481 kts | 39° |
| 2026-05-04 19:37 | 43.14023 | -7.74568 | 35008 ft | 481 kts | 39° |
| 2026-05-04 19:37 | 43.18963 | -7.68570 | 35481 ft | 479 kts | 39° |
| 2026-05-04 19:37 | 43.21872 | -7.65031 | 35852 ft | 476 kts | 39° |
| 2026-05-04 19:37 | 43.24352 | -7.62011 | 36008 ft | 478 kts | 39° |
| 2026-05-04 19:38 | 43.26844 | -7.58975 | 36128 ft | 480 kts | 39° |
| 2026-05-04 19:38 | 43.29345 | -7.55924 | 36239 ft | 482 kts | 39° |
| 2026-05-04 19:38 | 43.31850 | -7.52864 | 36441 ft | 482 kts | 39° |
| 2026-05-04 19:38 | 43.34350 | -7.49806 | 36703 ft | 480 kts | 39° |
| 2026-05-04 19:39 | 43.36839 | -7.46757 | 36925 ft | 480 kts | 39° |
| 2026-05-04 19:39 | 43.39330 | -7.43702 | 37065 ft | 481 kts | 39° |
| 2026-05-04 19:39 | 43.43633 | -7.38420 | 37047 ft | 485 kts | 40° |
| 2026-05-04 19:40 | 43.53733 | -7.25976 | 37053 ft | 486 kts | 40° |
| 2026-05-04 19:40 | 43.63474 | -7.13916 | 37049 ft | 477 kts | 40° |
| 2026-05-04 19:41 | 43.73249 | -7.01762 | 37032 ft | 469 kts | 40° |
| 2026-05-04 19:41 | 43.82697 | -6.89964 | 37073 ft | 474 kts | 40° |
| 2026-05-04 19:42 | 43.92546 | -6.77608 | 37046 ft | 485 kts | 41° |
| 2026-05-04 19:42 | 44.02561 | -6.64981 | 37020 ft | 486 kts | 41° |
| 2026-05-04 19:43 | 44.12474 | -6.52422 | 37007 ft | 476 kts | 41° |
| 2026-05-04 19:43 | 44.22182 | -6.40068 | 37017 ft | 470 kts | 41° |
| 2026-05-04 19:44 | 44.31890 | -6.27658 | 37037 ft | 478 kts | 41° |
| 2026-05-04 19:44 | 44.41781 | -6.14950 | 37027 ft | 487 kts | 42° |
| 2026-05-04 19:45 | 44.51735 | -6.02099 | 37001 ft | 483 kts | 42° |
| 2026-05-04 19:45 | 44.61261 | -5.89742 | 37006 ft | 474 kts | 42° |
| 2026-05-04 19:46 | 44.69568 | -5.79066 | 37032 ft | 473 kts | 41° |
| 2026-05-04 19:46 | 44.79605 | -5.66729 | 37023 ft | 484 kts | 41° |
| 2026-05-04 19:47 | 44.89784 | -5.54079 | 37019 ft | 488 kts | 41° |
| 2026-05-04 19:47 | 44.99799 | -5.41544 | 36998 ft | 479 kts | 41° |
| 2026-05-04 19:48 | 45.09649 | -5.29162 | 37005 ft | 471 kts | 41° |
| 2026-05-04 19:48 | 45.19471 | -5.16755 | 37025 ft | 477 kts | 41° |
| 2026-05-04 19:49 | 45.29473 | -5.04060 | 37029 ft | 487 kts | 42° |
| 2026-05-04 19:49 | 45.39338 | -4.91476 | 37001 ft | 485 kts | 42° |
| 2026-05-04 19:50 | 45.49281 | -4.78731 | 37008 ft | 476 kts | 42° |
| 2026-05-04 19:50 | 45.58967 | -4.66255 | 36989 ft | 470 kts | 43° |
| 2026-05-04 19:51 | 45.68733 | -4.53611 | 37019 ft | 478 kts | 43° |
| 2026-05-04 19:51 | 45.78682 | -4.40669 | 37014 ft | 486 kts | 43° |
| 2026-05-04 19:52 | 45.88687 | -4.27588 | 36991 ft | 484 kts | 43° |
| 2026-05-04 19:52 | 45.98526 | -4.14659 | 36987 ft | 473 kts | 43° |
| 2026-05-04 19:53 | 46.08134 | -4.01969 | 37005 ft | 468 kts | 43° |
| 2026-05-04 19:53 | 46.17546 | -3.89475 | 37017 ft | 476 kts | 44° |
| 2026-05-04 19:54 | 46.27380 | -3.76357 | 37012 ft | 485 kts | 44° |
| 2026-05-04 19:54 | 46.33096 | -3.67916 | 36990 ft | 476 kts | 56° |
| 2026-05-04 19:55 | 46.37905 | -3.56263 | 36982 ft | 467 kts | 62° |
| 2026-05-04 19:55 | 46.44420 | -3.40171 | 37012 ft | 468 kts | 61° |
| 2026-05-04 19:56 | 46.51131 | -3.23729 | 37009 ft | 479 kts | 61° |
| 2026-05-04 19:56 | 46.57114 | -3.08978 | 36995 ft | 481 kts | 61° |
| 2026-05-04 19:57 | 46.63650 | -2.92711 | 36980 ft | 470 kts | 61° |
| 2026-05-04 19:57 | 46.70133 | -2.76466 | 36975 ft | 465 kts | 62° |
| 2026-05-04 19:58 | 46.75592 | -2.62712 | 37004 ft | 472 kts | 62° |
| 2026-05-04 19:58 | 46.82236 | -2.45884 | 36999 ft | 483 kts | 62° |
| 2026-05-04 19:59 | 46.87270 | -2.33145 | 36962 ft | 481 kts | 60° |
| 2026-05-04 19:59 | 46.94275 | -2.16713 | 36977 ft | 471 kts | 60° |
| 2026-05-04 20:00 | 46.99857 | -2.03660 | 36953 ft | 470 kts | 54° |
| 2026-05-04 20:00 | 47.05267 | -1.96085 | 36989 ft | 480 kts | 37° |
| 2026-05-04 20:01 | 47.14085 | -1.86620 | 36983 ft | 490 kts | 38° |
| 2026-05-04 20:01 | 47.23624 | -1.76063 | 36949 ft | 484 kts | 38° |
| 2026-05-04 20:02 | 47.33206 | -1.65449 | 36931 ft | 474 kts | 40° |
| 2026-05-04 20:02 | 47.37998 | -1.57936 | 36983 ft | 474 kts | 54° |
| 2026-05-04 20:03 | 47.46135 | -1.42223 | 36962 ft | 486 kts | 54° |
| 2026-05-04 20:03 | 47.54418 | -1.26457 | 36932 ft | 483 kts | 54° |
| 2026-05-04 20:04 | 47.62571 | -1.10877 | 36932 ft | 473 kts | 54° |
| 2026-05-04 20:04 | 47.70460 | -0.95700 | 36965 ft | 470 kts | 54° |
| 2026-05-04 20:05 | 47.77550 | -0.82004 | 36943 ft | 480 kts | 54° |
| 2026-05-04 20:05 | 47.85716 | -0.66160 | 36953 ft | 488 kts | 54° |
| 2026-05-04 20:06 | 47.93923 | -0.50142 | 36931 ft | 483 kts | 55° |
| 2026-05-04 20:06 | 48.01978 | -0.34322 | 36942 ft | 473 kts | 55° |
| 2026-05-04 20:07 | 48.08502 | -0.21483 | 36961 ft | 470 kts | 54° |
| 2026-05-04 20:07 | 48.10480 | -0.17671 | 36929 ft | 458 kts | 54° |
| 2026-05-04 20:07 | 48.12877 | -0.13078 | 36931 ft | 441 kts | 54° |
| 2026-05-04 20:07 | 48.15764 | -0.07533 | 36898 ft | 420 kts | 54° |
| 2026-05-04 20:08 | 48.17539 | -0.04106 | 36922 ft | 413 kts | 55° |
| 2026-05-04 20:08 | 48.21800 | 0.04171 | 36823 ft | 429 kts | 55° |
| 2026-05-04 20:08 | 48.23644 | 0.07764 | 36560 ft | 440 kts | 55° |
| 2026-05-04 20:09 | 48.25590 | 0.11360 | 36293 ft | 446 kts | 48° |
| 2026-05-04 20:09 | 48.27945 | 0.14468 | 36051 ft | 457 kts | 37° |
| 2026-05-04 20:09 | 48.30571 | 0.17221 | 36019 ft | 464 kts | 36° |
| 2026-05-04 20:09 | 48.34557 | 0.21298 | 35914 ft | 474 kts | 36° |
| 2026-05-04 20:10 | 48.38634 | 0.25483 | 35582 ft | 484 kts | 36° |
| 2026-05-04 20:10 | 48.41356 | 0.28304 | 35319 ft | 477 kts | 37° |
| 2026-05-04 20:10 | 48.46407 | 0.33591 | 34806 ft | 461 kts | 37° |
| 2026-05-04 20:10 | 48.51664 | 0.39144 | 33566 ft | 466 kts | 38° |
| 2026-05-04 20:11 | 48.54831 | 0.42503 | 32613 ft | 469 kts | 38° |
| 2026-05-04 20:11 | 48.57506 | 0.45344 | 31680 ft | 470 kts | 37° |
| 2026-05-04 20:11 | 48.60175 | 0.48178 | 30791 ft | 468 kts | 37° |
| 2026-05-04 20:11 | 48.62835 | 0.51004 | 29914 ft | 465 kts | 37° |
| 2026-05-04 20:12 | 48.65474 | 0.53810 | 28923 ft | 461 kts | 37° |
| 2026-05-04 20:12 | 48.68084 | 0.56590 | 27965 ft | 456 kts | 36° |
| 2026-05-04 20:12 | 48.70672 | 0.59349 | 27058 ft | 451 kts | 36° |
| 2026-05-04 20:12 | 48.73210 | 0.62059 | 26400 ft | 441 kts | 36° |
| 2026-05-04 20:13 | 48.75689 | 0.64709 | 25730 ft | 431 kts | 36° |
| 2026-05-04 20:13 | 48.78103 | 0.67293 | 25326 ft | 417 kts | 36° |
| 2026-05-04 20:13 | 48.80433 | 0.69789 | 24944 ft | 403 kts | 36° |
| 2026-05-04 20:13 | 48.82657 | 0.72176 | 24575 ft | 391 kts | 37° |
| 2026-05-04 20:14 | 48.84847 | 0.74527 | 24211 ft | 380 kts | 37° |
| 2026-05-04 20:14 | 48.88067 | 0.77992 | 23662 ft | 364 kts | 37° |
| 2026-05-04 20:14 | 48.92101 | 0.82341 | 22823 ft | 348 kts | 37° |
| 2026-05-04 20:14 | 48.95762 | 0.86295 | 22052 ft | 338 kts | 37° |
| 2026-05-04 20:15 | 48.97668 | 0.88357 | 21597 ft | 337 kts | 36° |
| 2026-05-04 20:15 | 49.00265 | 0.91171 | 20811 ft | 343 kts | 36° |
| 2026-05-04 20:15 | 49.02211 | 0.93281 | 20186 ft | 343 kts | 36° |
| 2026-05-04 20:15 | 49.04154 | 0.95390 | 19567 ft | 343 kts | 36° |
| 2026-05-04 20:16 | 49.06098 | 0.97502 | 18975 ft | 343 kts | 36° |
| 2026-05-04 20:16 | 49.08042 | 0.99615 | 18391 ft | 342 kts | 37° |
| 2026-05-04 20:16 | 49.09914 | 1.01651 | 17755 ft | 341 kts | 37° |
| 2026-05-04 20:16 | 49.11845 | 1.03753 | 17092 ft | 340 kts | 37° |
| 2026-05-04 20:17 | 49.13762 | 1.05843 | 16456 ft | 339 kts | 37° |
| 2026-05-04 20:17 | 49.15678 | 1.07934 | 15820 ft | 337 kts | 37° |
| 2026-05-04 20:17 | 49.17549 | 1.09976 | 15383 ft | 330 kts | 37° |
| 2026-05-04 20:17 | 49.19393 | 1.11991 | 14977 ft | 322 kts | 37° |
| 2026-05-04 20:18 | 49.21197 | 1.13964 | 14586 ft | 315 kts | 38° |
| 2026-05-04 20:18 | 49.22966 | 1.15901 | 14213 ft | 309 kts | 38° |
| 2026-05-04 20:18 | 49.24699 | 1.17801 | 13834 ft | 304 kts | 38° |
| 2026-05-04 20:18 | 49.26396 | 1.19663 | 13446 ft | 297 kts | 38° |
| 2026-05-04 20:19 | 49.28057 | 1.21486 | 13073 ft | 291 kts | 38° |
| 2026-05-04 20:19 | 49.30564 | 1.24243 | 12511 ft | 281 kts | 38° |
| 2026-05-04 20:19 | 49.33678 | 1.27671 | 11779 ft | 270 kts | 38° |
| 2026-05-04 20:19 | 49.36695 | 1.31000 | 11068 ft | 263 kts | 37° |
| 2026-05-04 20:20 | 49.39639 | 1.34252 | 10369 ft | 258 kts | 37° |
| 2026-05-04 20:20 | 49.42533 | 1.37453 | 9670 ft | 254 kts | 37° |
| 2026-05-04 20:20 | 49.45372 | 1.40598 | 8927 ft | 250 kts | 37° |
| 2026-05-04 20:20 | 49.48174 | 1.43707 | 8221 ft | 248 kts | 37° |
| 2026-05-04 20:21 | 49.50970 | 1.46814 | 7535 ft | 249 kts | 37° |
| 2026-05-04 20:21 | 49.53786 | 1.49947 | 6847 ft | 249 kts | 37° |
| 2026-05-04 20:21 | 49.57022 | 1.53552 | 6034 ft | 248 kts | 36° |
| 2026-05-04 20:22 | 49.58408 | 1.55098 | 5705 ft | 250 kts | 36° |
| 2026-05-04 20:22 | 49.59724 | 1.56881 | 5342 ft | 250 kts | 55° |
| 2026-05-04 20:22 | 49.60340 | 1.59327 | 4979 ft | 246 kts | 84° |
| 2026-05-04 20:22 | 49.60374 | 1.61900 | 4657 ft | 242 kts | 90° |
| 2026-05-04 20:23 | 49.60326 | 1.64481 | 4335 ft | 238 kts | 91° |
| 2026-05-04 20:23 | 49.60266 | 1.66996 | 4066 ft | 232 kts | 91° |
| 2026-05-04 20:23 | 49.60204 | 1.69433 | 3813 ft | 226 kts | 91° |
| 2026-05-04 20:23 | 49.60112 | 1.72950 | 3420 ft | 218 kts | 91° |
| 2026-05-04 20:24 | 49.60047 | 1.75259 | 3173 ft | 215 kts | 91° |
| 2026-05-04 20:24 | 49.59876 | 1.77530 | 2940 ft | 213 kts | 108° |
| 2026-05-04 20:24 | 49.59168 | 1.79510 | 2720 ft | 209 kts | 119° |
| 2026-05-04 20:24 | 49.58414 | 1.81388 | 2454 ft | 203 kts | 118° |
| 2026-05-04 20:25 | 49.57652 | 1.83205 | 2169 ft | 198 kts | 120° |
| 2026-05-04 20:25 | 49.56905 | 1.84914 | 2036 ft | 184 kts | 120° |
| 2026-05-04 20:25 | 49.56225 | 1.86469 | 1988 ft | 166 kts | 120° |
| 2026-05-04 20:25 | 49.55609 | 1.87883 | 1985 ft | 155 kts | 119° |
| 2026-05-04 20:26 | 49.54991 | 1.89307 | 2076 ft | 158 kts | 120° |
| 2026-05-04 20:26 | 49.54401 | 1.90657 | 2035 ft | 149 kts | 119° |
| 2026-05-04 20:26 | 49.53844 | 1.91937 | 2000 ft | 144 kts | 119° |
| 2026-05-04 20:26 | 49.53281 | 1.93236 | 2012 ft | 147 kts | 119° |
| 2026-05-04 20:27 | 49.52706 | 1.94554 | 1998 ft | 146 kts | 119° |
| 2026-05-04 20:27 | 49.52149 | 1.95833 | 1998 ft | 146 kts | 119° |
| 2026-05-04 20:27 | 49.51585 | 1.97131 | 1998 ft | 146 kts | 118° |
| 2026-05-04 20:27 | 49.51021 | 1.98428 | 1998 ft | 146 kts | 118° |
| 2026-05-04 20:28 | 49.50454 | 1.99733 | 2001 ft | 147 kts | 120° |
| 2026-05-04 20:28 | 49.49896 | 2.01015 | 1851 ft | 150 kts | 121° |
| 2026-05-04 20:28 | 49.49306 | 2.02373 | 1710 ft | 155 kts | 120° |
| 2026-05-04 20:28 | 49.48725 | 2.03771 | 1489 ft | 154 kts | 120° |
| 2026-05-04 20:29 | 49.48133 | 2.05135 | 1175 ft | 152 kts | 123° |
| 2026-05-04 20:29 | 49.47549 | 2.06468 | 993 ft | 148 kts | 122° |
| 2026-05-04 20:29 | 49.46985 | 2.07757 | 812 ft | 144 kts | 123° |
| 2026-05-04 20:29 | 49.46422 | 2.09033 | 657 ft | 143 kts | 123° |
| 2026-05-04 20:30 | 49.45867 | 2.10297 | 416 ft | 144 kts | 122° |
| 2026-05-04 20:30 | 49.45341 | 2.11522 | 349 ft | 125 kts | 122° |
| 2026-05-04 20:30 | 49.44963 | 2.12402 | 344 ft | 78 kts | 125° |
| 2026-05-04 20:30 | 49.44881 | 2.12582 | 346 ft | 8 kts | 124° |